Time;durP1;ratioP1;P1;durP2;ratioP2;P2;SDS_P1;SDS_P2;PMS_P1;PMS_P2;Temp;Humidity;BMP_temperature;BMP_pressure;BME280_temperature;BME280_humidity;BME280_pressure;Samples;Min_cycle;Max_cycle;Signal;HPM_P1;HPM_P2
2023/02/07 00:00:28;;;;;;;24.33;7.00;;;;;;;;;;5017933;28;20179;-70
2023/02/07 00:02:55;;;;;;;16.77;6.27;;;;;;;;;;5030637;28;20261;-70
2023/02/07 00:05:21;;;;;;;16.07;6.37;;;;;;;;;;5015081;28;20480;-68
2023/02/07 00:07:46;;;;;;;19.63;7.43;;;;;;;;;;5013297;28;20201;-68
2023/02/07 00:10:11;;;;;;;16.77;6.63;;;;;;;;;;5015956;28;20599;-69
2023/02/07 00:12:36;;;;;;;14.13;6.50;;;;;;;;;;5018092;28;20194;-68
2023/02/07 00:15:02;;;;;;;11.43;6.43;;;;;;;;;;5012992;28;20178;-69
2023/02/07 00:17:28;;;;;;;18.50;6.13;;;;;;;;;;5013588;28;20750;-69
2023/02/07 00:19:53;;;;;;;19.37;6.57;;;;;;;;;;5016197;28;20702;-69
2023/02/07 00:22:18;;;;;;;17.90;6.73;;;;;;;;;;5032332;28;20639;-69
2023/02/07 00:24:43;;;;;;;17.70;6.87;;;;;;;;;;5014127;28;20190;-69
2023/02/07 00:27:09;;;;;;;11.83;7.20;;;;;;;;;;5015433;28;20191;-69
2023/02/07 00:29:34;;;;;;;20.03;7.33;;;;;;;;;;5012817;28;20205;-69
2023/02/07 00:32:00;;;;;;;13.07;5.93;;;;;;;;;;5012781;28;20648;-70
2023/02/07 00:34:25;;;;;;;10.17;4.83;;;;;;;;;;5011477;28;20190;-70
2023/02/07 00:36:50;;;;;;;14.00;5.97;;;;;;;;;;5015353;28;20203;-70
2023/02/07 00:39:16;;;;;;;15.67;5.90;;;;;;;;;;5012734;28;20302;-70
2023/02/07 00:41:41;;;;;;;13.30;5.87;;;;;;;;;;5017884;28;20178;-69
2023/02/07 00:44:07;;;;;;;17.37;5.97;;;;;;;;;;5018606;28;20621;-70
2023/02/07 00:46:33;;;;;;;21.67;6.47;;;;;;;;;;5011878;28;20192;-70
2023/02/07 00:48:58;;;;;;;17.27;6.90;;;;;;;;;;5022545;28;20613;-68
2023/02/07 00:51:26;;;;;;;14.37;6.43;;;;;;;;;;5006386;28;20237;-68
2023/02/07 00:53:55;;;;;;;12.23;6.50;;;;;;;;;;5011007;28;20214;-68
2023/02/07 00:56:21;;;;;;;21.80;7.73;;;;;;;;;;5015693;28;20213;-68
2023/02/07 00:58:46;;;;;;;15.27;6.33;;;;;;;;;;5016540;28;20250;-69
2023/02/07 01:01:11;;;;;;;16.37;6.47;;;;;;;;;;5027592;28;20181;-69
2023/02/07 01:03:37;;;;;;;16.70;6.23;;;;;;;;;;5017431;28;20174;-68
2023/02/07 01:06:02;;;;;;;22.13;7.33;;;;;;;;;;5010636;28;20179;-69
2023/02/07 01:08:27;;;;;;;21.17;6.73;;;;;;;;;;5005341;28;20236;-69
2023/02/07 01:10:53;;;;;;;11.37;6.33;;;;;;;;;;5010603;28;20182;-68
2023/02/07 01:13:18;;;;;;;15.20;7.13;;;;;;;;;;5024807;28;20179;-69
2023/02/07 01:15:44;;;;;;;14.43;6.90;;;;;;;;;;5017468;28;20209;-69
2023/02/07 01:18:10;;;;;;;15.93;7.10;;;;;;;;;;5022064;28;20344;-68
2023/02/07 01:20:35;;;;;;;21.17;7.50;;;;;;;;;;5020861;28;20268;-68
2023/02/07 01:23:00;;;;;;;11.67;6.93;;;;;;;;;;5026599;28;20186;-68
2023/02/07 01:25:25;;;;;;;18.53;7.40;;;;;;;;;;5024700;28;20179;-69
2023/02/07 01:27:50;;;;;;;31.57;10.37;;;;;;;;;;5016227;28;20214;-70
2023/02/07 01:30:16;;;;;;;21.03;8.80;;;;;;;;;;5018226;28;20182;-69
2023/02/07 01:32:41;;;;;;;26.10;9.27;;;;;;;;;;5022652;28;20190;-69
2023/02/07 01:35:06;;;;;;;24.10;9.10;;;;;;;;;;5019258;28;20718;-69
2023/02/07 01:37:31;;;;;;;26.03;10.20;;;;;;;;;;5019220;28;20269;-69
2023/02/07 01:39:57;;;;;;;25.63;8.80;;;;;;;;;;5015523;28;20175;-70
2023/02/07 01:42:23;;;;;;;18.50;9.20;;;;;;;;;;5024491;28;20549;-70
2023/02/07 01:44:48;;;;;;;16.73;10.33;;;;;;;;;;5026493;28;20188;-69
2023/02/07 01:47:16;;;;;;;18.93;8.63;;;;;;;;;;5019243;28;20566;-69
2023/02/07 01:49:42;;;;;;;19.43;7.93;;;;;;;;;;5016187;28;20182;-69
2023/02/07 01:52:09;;;;;;;26.37;9.97;;;;;;;;;;5013339;28;20193;-70
2023/02/07 01:54:35;;;;;;;19.53;9.63;;;;;;;;;;5015756;28;20197;-69
2023/02/07 01:57:03;;;;;;;22.40;9.73;;;;;;;;;;5014201;28;20207;-70
2023/02/07 01:59:29;;;;;;;21.53;9.47;;;;;;;;;;5016036;28;20222;-69
2023/02/07 02:01:54;;;;;;;21.67;11.17;;;;;;;;;;5014914;28;20183;-69
2023/02/07 02:04:20;;;;;;;25.50;9.50;;;;;;;;;;5033901;28;20248;-70
2023/02/07 02:06:45;;;;;;;23.70;9.97;;;;;;;;;;5022635;28;20601;-69
2023/02/07 02:09:12;;;;;;;28.70;11.27;;;;;;;;;;5014922;28;20272;-69
2023/02/07 02:11:56;;;;;;;27.67;11.40;;;;;;;;;;5026928;28;20182;-70
2023/02/07 02:14:42;;;;;;;18.60;9.50;;;;;;;;;;5020572;28;20178;-70
2023/02/07 02:17:10;;;;;;;23.37;9.50;;;;;;;;;;5018117;28;20664;-70
2023/02/07 02:19:50;;;;;;;19.17;9.47;;;;;;;;;;5020916;28;20269;-70
2023/02/07 02:22:42;;;;;;;18.67;10.43;;;;;;;;;;5031198;28;20192;-70
2023/02/07 02:25:29;;;;;;;20.07;9.30;;;;;;;;;;5029741;28;20186;-70
2023/02/07 02:28:07;;;;;;;26.03;8.60;;;;;;;;;;5023782;28;20219;-69
2023/02/07 02:30:51;;;;;;;21.10;8.50;;;;;;;;;;5027277;28;20182;-69
2023/02/07 02:33:43;;;;;;;20.77;9.73;;;;;;;;;;5022271;28;20193;-70
2023/02/07 02:36:27;;;;;;;19.47;9.67;;;;;;;;;;5018380;28;20210;-70
2023/02/07 02:39:11;;;;;;;23.77;9.80;;;;;;;;;;5024481;28;20273;-70
2023/02/07 02:41:45;;;;;;;29.83;9.53;;;;;;;;;;5030685;28;20530;-69
2023/02/07 02:44:16;;;;;;;19.70;8.93;;;;;;;;;;5017785;28;20190;-69
2023/02/07 02:46:43;;;;;;;20.50;8.33;;;;;;;;;;5019914;28;20681;-70
2023/02/07 02:49:10;;;;;;;29.50;11.07;;;;;;;;;;5011098;28;20608;-70
2023/02/07 02:51:35;;;;;;;26.37;9.87;;;;;;;;;;5016789;28;20187;-69
2023/02/07 02:54:01;;;;;;;26.33;11.50;;;;;;;;;;5012802;28;20186;-70
2023/02/07 02:56:44;;;;;;;20.67;9.70;;;;;;;;;;5018634;28;20195;-70
2023/02/07 02:59:18;;;;;;;24.30;11.33;;;;;;;;;;5017311;28;20544;-69
2023/02/07 03:01:52;;;;;;;24.53;10.67;;;;;;;;;;5016722;28;20181;-70
2023/02/07 03:04:27;;;;;;;21.03;10.13;;;;;;;;;;5014862;28;20253;-70
2023/02/07 03:06:52;;;;;;;25.10;11.10;;;;;;;;;;5010740;28;20176;-70
2023/02/07 03:09:36;;;;;;;24.77;11.20;;;;;;;;;;5011799;28;20664;-70
2023/02/07 03:12:01;;;;;;;22.60;10.73;;;;;;;;;;5030219;28;20193;-69
2023/02/07 03:14:35;;;;;;;24.43;10.80;;;;;;;;;;5026722;28;20186;-69
2023/02/07 03:17:17;;;;;;;26.00;11.50;;;;;;;;;;5021073;28;20214;-70
2023/02/07 03:19:48;;;;;;;24.70;11.07;;;;;;;;;;5019823;28;20190;-70
2023/02/07 03:22:15;;;;;;;26.20;11.60;;;;;;;;;;5020077;28;20182;-70
2023/02/07 03:24:43;;;;;;;30.30;11.57;;;;;;;;;;5017744;28;20198;-70
2023/02/07 03:27:11;;;;;;;25.03;12.27;;;;;;;;;;5022378;28;20214;-70
2023/02/07 03:29:37;;;;;;;26.73;12.13;;;;;;;;;;5013786;28;20600;-70
2023/02/07 03:32:04;;;;;;;26.80;11.77;;;;;;;;;;5024606;28;20182;-70
2023/02/07 03:34:49;;;;;;;27.83;13.73;;;;;;;;;;5014131;28;20674;-70
2023/02/07 03:37:14;;;;;;;33.50;13.63;;;;;;;;;;5026323;28;20213;-70
2023/02/07 03:39:39;;;;;;;31.97;12.90;;;;;;;;;;5012918;28;20928;-70
2023/02/07 03:42:08;;;;;;;27.87;14.07;;;;;;;;;;5020820;28;20174;-70
2023/02/07 03:44:34;;;;;;;34.80;13.70;;;;;;;;;;5023278;28;20277;-71
2023/02/07 03:47:00;;;;;;;29.60;13.50;;;;;;;;;;5028855;28;20178;-70
2023/02/07 03:49:25;;;;;;;28.00;13.50;;;;;;;;;;5025112;28;20183;-71
2023/02/07 03:51:50;;;;;;;32.17;13.73;;;;;;;;;;5021910;28;20186;-71
2023/02/07 03:54:16;;;;;;;34.30;17.10;;;;;;;;;;5019930;28;20186;-71
2023/02/07 03:56:41;;;;;;;27.00;13.87;;;;;;;;;;5017998;28;20209;-71
2023/02/07 03:59:07;;;;;;;29.90;12.90;;;;;;;;;;5023660;28;20187;-71
2023/02/07 04:01:33;;;;;;;27.17;12.93;;;;;;;;;;5029611;28;20217;-71
2023/02/07 04:03:59;;;;;;;31.97;13.00;;;;;;;;;;5019598;28;20262;-71
2023/02/07 04:06:24;;;;;;;34.60;16.27;;;;;;;;;;5020122;28;20202;-71
2023/02/07 04:08:49;;;;;;;34.00;13.87;;;;;;;;;;5022372;28;20240;-70
2023/02/07 04:11:14;;;;;;;32.87;13.63;;;;;;;;;;5019115;28;20186;-71
2023/02/07 04:13:39;;;;;;;32.20;14.97;;;;;;;;;;5020574;28;20183;-71
2023/02/07 04:16:05;;;;;;;32.87;12.90;;;;;;;;;;5015544;28;20779;-70
2023/02/07 04:18:30;;;;;;;33.43;14.57;;;;;;;;;;5022425;28;20207;-70
2023/02/07 04:20:59;;;;;;;41.30;15.17;;;;;;;;;;5024578;28;20190;-70
2023/02/07 04:23:24;;;;;;;31.87;13.37;;;;;;;;;;5024701;28;20268;-70
2023/02/07 04:25:49;;;;;;;34.97;13.80;;;;;;;;;;5039456;28;20193;-70
2023/02/07 04:28:15;;;;;;;31.37;13.07;;;;;;;;;;5026065;28;20243;-70
2023/02/07 04:30:40;;;;;;;36.70;13.70;;;;;;;;;;5025281;28;20181;-70
2023/02/07 04:33:05;;;;;;;33.63;13.87;;;;;;;;;;5026607;28;20930;-70
2023/02/07 04:35:30;;;;;;;30.77;14.40;;;;;;;;;;5027835;28;20224;-70
2023/02/07 04:37:55;;;;;;;36.50;14.77;;;;;;;;;;5023613;28;20244;-70
2023/02/07 04:40:21;;;;;;;37.53;14.07;;;;;;;;;;5023356;28;20179;-70
2023/02/07 04:42:46;;;;;;;26.33;13.43;;;;;;;;;;5029092;28;20232;-70
2023/02/07 04:45:11;;;;;;;39.73;15.83;;;;;;;;;;5026125;28;20178;-70
2023/02/07 04:47:36;;;;;;;30.10;13.97;;;;;;;;;;5020841;28;20217;-71
2023/02/07 04:50:01;;;;;;;34.23;15.37;;;;;;;;;;5020602;28;20648;-70
2023/02/07 04:52:27;;;;;;;36.97;16.20;;;;;;;;;;5019366;28;20183;-70
2023/02/07 04:54:52;;;;;;;37.97;16.03;;;;;;;;;;5030870;28;20248;-70
2023/02/07 04:57:17;;;;;;;39.83;14.77;;;;;;;;;;5019081;28;20580;-70
2023/02/07 04:59:42;;;;;;;50.47;16.30;;;;;;;;;;5017273;28;20221;-70
2023/02/07 05:02:08;;;;;;;38.37;17.07;;;;;;;;;;5023200;28;20226;-71
2023/02/07 05:04:33;;;;;;;43.77;15.83;;;;;;;;;;5016894;28;20257;-71
2023/02/07 05:06:58;;;;;;;32.90;14.80;;;;;;;;;;5016989;28;20656;-71
2023/02/07 05:09:24;;;;;;;36.07;17.03;;;;;;;;;;5019586;28;20182;-70
2023/02/07 05:11:49;;;;;;;33.10;16.53;;;;;;;;;;5017979;28;20558;-70
2023/02/07 05:14:14;;;;;;;34.43;14.70;;;;;;;;;;5018736;28;20644;-70
2023/02/07 05:16:40;;;;;;;37.33;16.10;;;;;;;;;;5010760;28;20213;-70
2023/02/07 05:19:05;;;;;;;47.73;17.23;;;;;;;;;;5017942;28;20198;-70
2023/02/07 05:21:30;;;;;;;44.53;16.43;;;;;;;;;;5015575;28;20525;-70
2023/02/07 05:23:55;;;;;;;40.77;16.83;;;;;;;;;;5019422;28;20605;-70
2023/02/07 05:26:20;;;;;;;47.17;17.73;;;;;;;;;;5019467;28;20186;-70
2023/02/07 05:28:46;;;;;;;45.10;17.40;;;;;;;;;;5026121;28;20936;-70
2023/02/07 05:31:11;;;;;;;43.77;16.73;;;;;;;;;;5021751;28;20863;-70
2023/02/07 05:33:36;;;;;;;46.63;17.13;;;;;;;;;;5020007;28;20197;-72
2023/02/07 05:36:01;;;;;;;44.97;16.50;;;;;;;;;;5016796;28;20256;-71
2023/02/07 05:38:27;;;;;;;37.07;16.27;;;;;;;;;;5019025;28;20226;-71
2023/02/07 05:40:52;;;;;;;39.10;17.07;;;;;;;;;;5020920;28;20206;-70
2023/02/07 05:43:17;;;;;;;43.93;16.90;;;;;;;;;;5019612;28;20187;-70
2023/02/07 05:45:44;;;;;;;33.77;16.37;;;;;;;;;;5019420;28;20185;-70
2023/02/07 05:48:09;;;;;;;45.47;16.33;;;;;;;;;;5013029;28;20673;-70
2023/02/07 05:50:35;;;;;;;43.20;17.33;;;;;;;;;;5019180;28;20221;-70
2023/02/07 05:53:00;;;;;;;45.40;17.50;;;;;;;;;;5011867;28;20175;-70
2023/02/07 05:55:25;;;;;;;38.97;16.57;;;;;;;;;;5021148;28;20198;-70
2023/02/07 05:57:51;;;;;;;46.37;18.67;;;;;;;;;;5020589;28;20210;-70
2023/02/07 06:00:17;;;;;;;38.07;17.30;;;;;;;;;;5019900;28;20629;-71
2023/02/07 06:02:43;;;;;;;38.93;15.60;;;;;;;;;;5017664;28;20198;-70
2023/02/07 06:05:10;;;;;;;36.73;17.37;;;;;;;;;;5017458;28;20180;-70
2023/02/07 06:07:35;;;;;;;32.53;15.40;;;;;;;;;;5015316;28;20208;-70
2023/02/07 06:10:00;;;;;;;40.77;17.63;;;;;;;;;;5014439;28;20179;-70
2023/02/07 06:12:26;;;;;;;43.30;16.47;;;;;;;;;;5021340;28;20179;-70
2023/02/07 06:14:51;;;;;;;34.20;15.37;;;;;;;;;;5017588;28;20273;-70
2023/02/07 06:17:16;;;;;;;40.80;17.47;;;;;;;;;;5018165;28;20217;-70
2023/02/07 06:19:41;;;;;;;36.77;16.30;;;;;;;;;;5015048;28;20189;-70
2023/02/07 06:22:07;;;;;;;34.57;16.13;;;;;;;;;;5008880;28;20206;-70
2023/02/07 06:24:32;;;;;;;31.93;15.63;;;;;;;;;;5021741;28;20653;-70
2023/02/07 06:26:57;;;;;;;35.00;17.40;;;;;;;;;;5013442;28;20214;-70
2023/02/07 06:29:22;;;;;;;35.63;16.20;;;;;;;;;;5018544;28;20240;-70
2023/02/07 06:31:47;;;;;;;39.20;17.23;;;;;;;;;;5013386;28;20186;-70
2023/02/07 06:34:13;;;;;;;37.77;16.70;;;;;;;;;;5013281;28;20183;-70
2023/02/07 06:36:38;;;;;;;37.53;16.53;;;;;;;;;;5018633;28;20261;-70
2023/02/07 06:39:03;;;;;;;45.10;17.47;;;;;;;;;;5017064;28;20203;-70
2023/02/07 06:41:28;;;;;;;45.10;17.13;;;;;;;;;;5017403;28;20174;-70
2023/02/07 06:43:54;;;;;;;38.47;16.47;;;;;;;;;;5012671;28;20255;-70
2023/02/07 06:46:19;;;;;;;40.17;17.27;;;;;;;;;;5017608;28;20559;-70
2023/02/07 06:48:44;;;;;;;39.27;16.93;;;;;;;;;;5017757;28;20449;-70
2023/02/07 06:51:09;;;;;;;37.63;16.33;;;;;;;;;;5013989;28;20721;-70
2023/02/07 06:53:34;;;;;;;40.13;17.67;;;;;;;;;;5017676;28;20189;-70
2023/02/07 06:55:59;;;;;;;41.70;17.40;;;;;;;;;;5016654;28;20216;-70
2023/02/07 06:58:25;;;;;;;36.13;16.50;;;;;;;;;;5019287;28;20197;-70
2023/02/07 07:00:50;;;;;;;45.07;18.33;;;;;;;;;;5011477;28;20178;-70
2023/02/07 07:03:15;;;;;;;34.17;16.93;;;;;;;;;;5021860;28;20171;-70
2023/02/07 07:05:41;;;;;;;43.67;17.47;;;;;;;;;;5014241;28;20225;-70
2023/02/07 07:08:06;;;;;;;43.87;19.60;;;;;;;;;;5015432;28;20214;-70
2023/02/07 07:10:32;;;;;;;42.43;17.80;;;;;;;;;;5028020;28;21477;-70
2023/02/07 07:12:57;;;;;;;37.20;17.37;;;;;;;;;;5025185;28;20660;-70
2023/02/07 07:15:22;;;;;;;46.57;18.07;;;;;;;;;;5011977;28;20191;-70
2023/02/07 07:17:48;;;;;;;41.90;17.60;;;;;;;;;;5013942;28;20298;-70
2023/02/07 07:20:13;;;;;;;43.80;19.23;;;;;;;;;;5022685;28;20277;-70
2023/02/07 07:22:38;;;;;;;47.17;19.07;;;;;;;;;;5013485;28;20686;-71
2023/02/07 07:25:03;;;;;;;42.93;19.13;;;;;;;;;;5018165;28;20183;-70
2023/02/07 07:27:29;;;;;;;42.47;18.00;;;;;;;;;;5014562;28;20656;-70
2023/02/07 07:29:54;;;;;;;45.00;18.30;;;;;;;;;;5013992;28;20620;-71
2023/02/07 07:32:19;;;;;;;45.30;16.67;;;;;;;;;;5012433;28;20179;-71
2023/02/07 07:34:44;;;;;;;48.43;19.77;;;;;;;;;;5012504;28;20611;-71
2023/02/07 07:37:11;;;;;;;43.10;19.37;;;;;;;;;;5018712;28;20240;-71
2023/02/07 07:39:36;;;;;;;41.27;19.10;;;;;;;;;;5020188;28;20563;-71
2023/02/07 07:42:01;;;;;;;54.93;21.03;;;;;;;;;;5018381;28;20178;-71
2023/02/07 07:44:26;;;;;;;45.53;19.20;;;;;;;;;;5017231;28;20195;-71
2023/02/07 07:46:52;;;;;;;47.83;20.77;;;;;;;;;;5027268;28;20209;-71
2023/02/07 07:49:17;;;;;;;50.33;19.77;;;;;;;;;;5029950;28;20201;-70
2023/02/07 07:51:42;;;;;;;42.73;20.47;;;;;;;;;;5031608;28;20182;-69
2023/02/07 07:54:07;;;;;;;53.03;20.23;;;;;;;;;;5018967;28;20186;-69
2023/02/07 07:56:34;;;;;;;56.63;20.70;;;;;;;;;;5028473;28;20202;-70
2023/02/07 07:58:59;;;;;;;61.40;20.63;;;;;;;;;;5023096;28;20202;-70
2023/02/07 08:01:24;;;;;;;45.33;19.67;;;;;;;;;;5026989;28;20174;-71
2023/02/07 08:03:49;;;;;;;63.07;26.00;;;;;;;;;;5019885;28;20324;-72
2023/02/07 08:06:15;;;;;;;56.43;21.07;;;;;;;;;;5017511;28;20680;-71
2023/02/07 08:08:40;;;;;;;46.77;21.70;;;;;;;;;;5016671;28;20205;-71
2023/02/07 08:11:07;;;;;;;55.03;23.13;;;;;;;;;;5022014;28;20178;-71
2023/02/07 08:13:32;;;;;;;59.17;22.67;;;;;;;;;;5017819;28;20201;-72
2023/02/07 08:15:57;;;;;;;61.23;24.43;;;;;;;;;;5026767;28;20611;-72
2023/02/07 08:18:22;;;;;;;64.90;24.70;;;;;;;;;;5024493;28;20240;-70
2023/02/07 08:20:48;;;;;;;56.23;23.10;;;;;;;;;;5038729;28;20169;-70
2023/02/07 08:23:13;;;;;;;62.40;22.73;;;;;;;;;;5014956;28;20202;-71
2023/02/07 08:25:39;;;;;;;57.70;24.00;;;;;;;;;;5035348;28;20174;-71
2023/02/07 08:28:04;;;;;;;64.87;23.23;;;;;;;;;;5016962;28;20242;-71
2023/02/07 08:30:30;;;;;;;64.50;24.60;;;;;;;;;;5039547;28;20653;-71
2023/02/07 08:32:55;;;;;;;63.73;24.23;;;;;;;;;;5027036;28;20186;-71
2023/02/07 08:35:20;;;;;;;49.00;25.10;;;;;;;;;;5032469;28;20714;-71
2023/02/07 08:37:46;;;;;;;55.73;23.00;;;;;;;;;;5025196;28;20240;-71
2023/02/07 08:40:11;;;;;;;56.47;24.50;;;;;;;;;;5030457;28;20182;-71
2023/02/07 08:42:36;;;;;;;46.77;22.80;;;;;;;;;;5019487;28;20620;-71
2023/02/07 08:45:04;;;;;;;51.87;23.97;;;;;;;;;;5031016;28;20198;-71
2023/02/07 08:47:29;;;;;;;49.40;23.47;;;;;;;;;;5018558;28;20207;-71
2023/02/07 08:49:54;;;;;;;49.17;24.33;;;;;;;;;;5023622;28;20661;-71
2023/02/07 08:52:19;;;;;;;46.50;23.47;;;;;;;;;;5030172;28;20636;-71
2023/02/07 08:54:45;;;;;;;43.60;22.13;;;;;;;;;;5022472;28;20258;-71
2023/02/07 08:57:10;;;;;;;51.30;23.50;;;;;;;;;;5025775;28;20199;-71
2023/02/07 08:59:35;;;;;;;54.53;23.30;;;;;;;;;;5025644;28;20181;-71
2023/02/07 09:02:01;;;;;;;42.40;22.77;;;;;;;;;;5027011;28;20187;-71
2023/02/07 09:04:26;;;;;;;48.50;22.97;;;;;;;;;;5017736;28;20571;-71
2023/02/07 09:06:51;;;;;;;42.43;22.53;;;;;;;;;;5018469;28;20248;-71
2023/02/07 09:09:17;;;;;;;38.70;19.37;;;;;;;;;;5019663;28;20623;-71
2023/02/07 09:11:43;;;;;;;37.47;18.10;;;;;;;;;;5034855;28;20182;-71
2023/02/07 09:14:08;;;;;;;37.60;18.50;;;;;;;;;;5021925;28;20213;-72
2023/02/07 09:16:33;;;;;;;42.40;18.57;;;;;;;;;;5028565;28;20197;-72
2023/02/07 09:18:59;;;;;;;36.57;17.50;;;;;;;;;;5018601;28;20250;-71
2023/02/07 09:21:25;;;;;;;48.23;20.63;;;;;;;;;;5035332;28;20233;-71
2023/02/07 09:23:52;;;;;;;48.23;22.40;;;;;;;;;;5011365;28;20278;-72
2023/02/07 09:26:18;;;;;;;48.50;22.07;;;;;;;;;;5022638;28;20193;-72
2023/02/07 09:28:44;;;;;;;47.77;22.47;;;;;;;;;;5015533;28;20305;-71
2023/02/07 09:31:10;;;;;;;47.40;23.00;;;;;;;;;;5010408;28;20266;-71
2023/02/07 09:33:35;;;;;;;42.30;20.73;;;;;;;;;;5000130;28;20519;-71
2023/02/07 09:36:01;;;;;;;43.20;21.60;;;;;;;;;;4999843;28;20205;-72
2023/02/07 09:38:26;;;;;;;43.07;21.17;;;;;;;;;;5000189;28;20213;-71
2023/02/07 09:40:52;;;;;;;37.17;18.67;;;;;;;;;;4999228;28;20288;-71
2023/02/07 09:43:33;;;;;;;34.53;18.57;;;;;;;;;;5004643;28;20181;-72
2023/02/07 09:46:03;;;;;;;31.40;17.80;;;;;;;;;;4999626;28;20279;-71
2023/02/07 09:48:36;;;;;;;35.10;18.53;;;;;;;;;;4998605;28;20560;-69
2023/02/07 09:51:03;;;;;;;32.53;18.33;;;;;;;;;;4996804;28;20175;-68
2023/02/07 09:53:38;;;;;;;33.27;18.00;;;;;;;;;;4997354;28;20214;-69
2023/02/07 09:56:04;;;;;;;32.87;18.20;;;;;;;;;;5004155;28;20201;-69
2023/02/07 09:58:48;;;;;;;25.27;16.20;;;;;;;;;;4994987;28;20539;-69
2023/02/07 10:01:14;;;;;;;27.20;17.13;;;;;;;;;;5000498;28;20249;-68
2023/02/07 10:03:45;;;;;;;25.17;16.30;;;;;;;;;;4993944;28;20265;-69
2023/02/07 10:06:21;;;;;;;25.87;15.83;;;;;;;;;;4999141;28;20195;-69
2023/02/07 10:08:48;;;;;;;24.20;13.70;;;;;;;;;;4999742;28;20333;-72
2023/02/07 10:11:33;;;;;;;21.90;14.90;;;;;;;;;;5002819;28;20649;-71
2023/02/07 10:14:01;;;;;;;25.43;14.50;;;;;;;;;;5011457;28;20185;-69
2023/02/07 10:16:29;;;;;;;20.13;13.17;;;;;;;;;;5008442;28;20626;-69
2023/02/07 10:19:20;;;;;;;23.30;14.10;;;;;;;;;;5001459;28;20199;-69
2023/02/07 10:21:45;;;;;;;23.23;13.47;;;;;;;;;;5000846;28;20179;-69
2023/02/07 10:24:28;;;;;;;24.93;14.33;;;;;;;;;;5008889;28;20181;-69
2023/02/07 10:27:00;;;;;;;20.63;13.33;;;;;;;;;;5039505;28;20259;-68
2023/02/07 10:29:26;;;;;;;17.93;12.50;;;;;;;;;;5031711;28;20257;-69
2023/02/07 10:31:53;;;;;;;20.50;13.40;;;;;;;;;;5046238;28;20211;-68
2023/02/07 10:34:20;;;;;;;24.03;13.10;;;;;;;;;;5031872;28;20264;-69
2023/02/07 10:36:48;;;;;;;19.10;13.00;;;;;;;;;;5039536;28;20279;-68
2023/02/07 10:39:31;;;;;;;27.20;15.03;;;;;;;;;;5029420;28;20225;-68
2023/02/07 10:41:56;;;;;;;27.60;15.73;;;;;;;;;;5027996;28;20558;-69
2023/02/07 10:44:22;;;;;;;21.87;13.73;;;;;;;;;;5036344;28;20289;-68
2023/02/07 10:47:00;;;;;;;22.70;14.00;;;;;;;;;;5020741;28;20190;-68
2023/02/07 10:49:27;;;;;;;25.47;14.40;;;;;;;;;;5036185;28;20210;-70
2023/02/07 10:51:57;;;;;;;32.27;16.80;;;;;;;;;;5036215;28;20217;-71
2023/02/07 10:54:25;;;;;;;28.67;15.83;;;;;;;;;;5027304;28;20179;-69
2023/02/07 10:56:51;;;;;;;30.00;16.83;;;;;;;;;;5040736;28;20201;-68
2023/02/07 10:59:35;;;;;;;29.67;16.73;;;;;;;;;;5026608;28;20630;-68
2023/02/07 11:02:00;;;;;;;30.57;15.83;;;;;;;;;;5029359;28;20453;-69
2023/02/07 11:04:33;;;;;;;27.93;16.30;;;;;;;;;;5022366;28;20175;-69
2023/02/07 11:06:59;;;;;;;31.40;16.30;;;;;;;;;;5035512;28;20453;-69
2023/02/07 11:09:25;;;;;;;31.83;17.87;;;;;;;;;;5029208;28;20190;-68
2023/02/07 11:11:51;;;;;;;32.67;18.23;;;;;;;;;;5021756;28;20677;-68
2023/02/07 11:14:25;;;;;;;30.10;17.17;;;;;;;;;;5025725;28;20186;-71
2023/02/07 11:16:50;;;;;;;31.33;17.73;;;;;;;;;;5032203;28;20216;-71
2023/02/07 11:19:19;;;;;;;29.70;17.83;;;;;;;;;;5026103;28;20215;-71
2023/02/07 11:21:45;;;;;;;29.27;16.37;;;;;;;;;;5042199;28;20212;-71
2023/02/07 11:24:27;;;;;;;25.87;16.03;;;;;;;;;;5033145;28;20570;-69
2023/02/07 11:26:55;;;;;;;29.30;16.07;;;;;;;;;;5026085;28;20193;-70
2023/02/07 11:29:21;;;;;;;25.90;14.40;;;;;;;;;;5033467;28;20248;-70
2023/02/07 11:31:47;;;;;;;25.77;14.50;;;;;;;;;;5034009;28;20179;-70
2023/02/07 11:34:30;;;;;;;25.47;15.23;;;;;;;;;;5027612;28;20445;-71
2023/02/07 11:37:18;;;;;;;23.97;13.97;;;;;;;;;;5029534;28;20202;-70
2023/02/07 11:39:44;;;;;;;20.90;13.17;;;;;;;;;;5017836;28;20193;-71
2023/02/07 11:42:14;;;;;;;20.27;13.83;;;;;;;;;;5028513;28;20183;-70
2023/02/07 11:44:41;;;;;;;20.87;13.00;;;;;;;;;;5018673;28;20233;-70
2023/02/07 11:47:06;;;;;;;18.87;12.37;;;;;;;;;;5032433;28;20198;-70
2023/02/07 11:49:42;;;;;;;19.23;13.17;;;;;;;;;;5033667;28;20185;-70
2023/02/07 11:52:07;;;;;;;19.20;11.67;;;;;;;;;;5040176;28;20239;-70
2023/02/07 11:54:33;;;;;;;18.13;11.77;;;;;;;;;;5038432;28;20186;-70
2023/02/07 11:57:05;;;;;;;19.77;10.93;;;;;;;;;;5032823;28;20293;-70
2023/02/07 11:59:32;;;;;;;16.57;11.27;;;;;;;;;;5031596;28;20176;-70
2023/02/07 12:02:00;;;;;;;19.47;11.97;;;;;;;;;;5015722;28;20179;-71
2023/02/07 12:04:27;;;;;;;16.03;11.87;;;;;;;;;;5019730;28;20605;-71
2023/02/07 12:06:55;;;;;;;15.80;10.83;;;;;;;;;;5038426;28;20181;-71
2023/02/07 12:09:25;;;;;;;13.70;9.90;;;;;;;;;;5024373;28;20264;-71
2023/02/07 12:11:53;;;;;;;15.33;8.90;;;;;;;;;;5033702;28;20174;-71
2023/02/07 12:14:34;;;;;;;13.87;8.73;;;;;;;;;;5023472;28;20198;-71
2023/02/07 12:17:00;;;;;;;11.10;7.63;;;;;;;;;;5029486;28;20236;-71
2023/02/07 12:19:33;;;;;;;12.63;9.20;;;;;;;;;;5018447;28;20626;-71
2023/02/07 12:22:06;;;;;;;13.37;9.07;;;;;;;;;;5020692;28;20202;-70
2023/02/07 12:24:35;;;;;;;15.27;8.10;;;;;;;;;;5026770;28;20265;-71
2023/02/07 12:27:03;;;;;;;9.25;7.35;;;;;;;;;;5013654;28;20190;-72
2023/02/07 12:29:35;;;;;;;9.37;7.97;;;;;;;;;;5033973;28;20185;-71
2023/02/07 12:32:12;;;;;;;11.45;8.63;;;;;;;;;;5030668;28;20259;-71
2023/02/07 12:34:37;;;;;;;11.15;8.02;;;;;;;;;;5033460;28;20260;-71
2023/02/07 12:37:10;;;;;;;14.18;10.38;;;;;;;;;;5033979;28;20770;-69
2023/02/07 12:39:39;;;;;;;14.90;8.98;;;;;;;;;;5022004;28;20173;-72
2023/02/07 12:42:20;;;;;;;13.65;9.73;;;;;;;;;;5038136;28;20177;-72
2023/02/07 12:44:49;;;;;;;12.40;8.93;;;;;;;;;;5015412;28;20174;-71
2023/02/07 12:47:16;;;;;;;12.00;8.15;;;;;;;;;;5019631;28;20179;-71
2023/02/07 12:49:58;;;;;;;12.40;8.45;;;;;;;;;;5036347;28;20683;-72
2023/02/07 12:52:42;;;;;;;13.00;8.73;;;;;;;;;;5045181;28;20169;-72
2023/02/07 12:55:19;;;;;;;11.00;8.45;;;;;;;;;;5016187;28;20191;-71
2023/02/07 12:58:03;;;;;;;11.02;8.10;;;;;;;;;;5035941;28;20213;-72
2023/02/07 13:00:50;;;;;;;10.90;8.25;;;;;;;;;;5031067;28;20174;-71
2023/02/07 13:03:16;;;;;;;13.05;7.55;;;;;;;;;;5003998;28;20190;-71
2023/02/07 13:05:54;;;;;;;10.20;7.47;;;;;;;;;;5016901;28;20189;-71
2023/02/07 13:08:19;;;;;;;6.97;6.03;;;;;;;;;;5027770;28;20220;-71
2023/02/07 13:10:55;;;;;;;8.20;5.72;;;;;;;;;;5026769;28;20181;-71
2023/02/07 13:13:46;;;;;;;7.13;4.00;;;;;;;;;;5031746;28;20186;-71
2023/02/07 13:16:15;;;;;;;6.05;4.45;;;;;;;;;;5032229;28;20232;-71
2023/02/07 13:18:40;;;;;;;7.85;5.22;;;;;;;;;;5023919;28;20217;-71
2023/02/07 13:21:05;;;;;;;5.93;4.32;;;;;;;;;;5028560;28;20709;-71
2023/02/07 13:23:33;;;;;;;6.85;5.22;;;;;;;;;;5024255;28;20183;-71
2023/02/07 13:26:01;;;;;;;6.88;5.55;;;;;;;;;;5036001;28;20181;-71
2023/02/07 13:28:40;;;;;;;6.13;4.53;;;;;;;;;;5025462;28;20226;-71
2023/02/07 13:31:07;;;;;;;5.63;4.10;;;;;;;;;;5027538;28;20175;-71
2023/02/07 13:33:37;;;;;;;6.43;4.20;;;;;;;;;;5029916;28;20205;-71
2023/02/07 13:36:25;;;;;;;6.03;4.18;;;;;;;;;;5030193;28;20212;-71
2023/02/07 13:38:55;;;;;;;5.97;4.20;;;;;;;;;;5013731;28;20557;-71
2023/02/07 13:41:39;;;;;;;4.68;3.63;;;;;;;;;;5033165;28;20193;-71
2023/02/07 13:44:22;;;;;;;5.73;4.17;;;;;;;;;;5024695;28;20228;-70
2023/02/07 13:46:57;;;;;;;4.53;3.67;;;;;;;;;;5031986;28;20188;-71
2023/02/07 13:49:28;;;;;;;4.53;3.77;;;;;;;;;;5031839;28;20221;-70
2023/02/07 13:52:02;;;;;;;4.87;4.07;;;;;;;;;;5030896;28;20179;-72
2023/02/07 13:54:41;;;;;;;5.23;3.77;;;;;;;;;;5032438;28;20265;-70
2023/02/07 14:00:15;;;;;;;5.40;3.03;;;;;;;;;;5024150;28;20779;-71
2023/02/07 14:02:51;;;;;;;5.10;3.50;;;;;;;;;;5016497;28;20659;-71
2023/02/07 14:05:21;;;;;;;5.37;3.70;;;;;;;;;;5037802;28;20319;-71
2023/02/07 14:07:55;;;;;;;7.00;4.67;;;;;;;;;;5046002;28;20285;-71
2023/02/07 14:10:41;;;;;;;7.00;5.10;;;;;;;;;;5038361;28;20202;-72
2023/02/07 14:13:25;;;;;;;7.67;5.00;;;;;;;;;;5027528;28;20725;-72
2023/02/07 14:15:55;;;;;;;7.40;5.33;;;;;;;;;;5025967;28;20220;-70
2023/02/07 14:18:37;;;;;;;6.60;4.50;;;;;;;;;;5030521;28;20682;-69
2023/02/07 14:21:03;;;;;;;6.17;4.70;;;;;;;;;;5043862;28;20173;-69
2023/02/07 14:23:47;;;;;;;8.60;4.83;;;;;;;;;;5032906;28;20194;-69
2023/02/07 14:26:31;;;;;;;5.67;4.30;;;;;;;;;;5042969;28;20177;-69
2023/02/07 14:29:15;;;;;;;6.23;4.90;;;;;;;;;;5023745;28;20218;-71
2023/02/07 14:31:46;;;;;;;6.37;4.20;;;;;;;;;;5015102;28;20198;-71
2023/02/07 14:34:13;;;;;;;6.90;4.70;;;;;;;;;;5015281;28;20244;-70